createdAt,value
2022-09-12T00:01:39.995Z,11.59
2022-09-12T00:06:42.167Z,11.69
2022-09-12T00:11:45.820Z,11.58
2022-09-12T00:16:47.547Z,11.57
2022-09-12T00:21:49.121Z,11.75
2022-09-12T00:26:50.703Z,12.00
2022-09-12T00:31:52.295Z,12.15
2022-09-12T00:36:53.836Z,11.91
2022-09-12T00:41:55.960Z,11.65
2022-09-12T00:47:11.271Z,11.41
2022-09-12T00:52:16.074Z,11.21
2022-09-12T00:57:18.153Z,10.90
2022-09-12T01:02:20.221Z,10.68
2022-09-12T01:07:22.110Z,10.51
2022-09-12T01:12:24.277Z,10.66
2022-09-12T01:17:37.679Z,10.59
2022-09-12T01:22:45.186Z,10.42
2022-09-12T01:28:05.091Z,10.19
2022-09-12T01:33:39.229Z,10.04
2022-09-12T01:38:50.304Z,9.97
2022-09-12T01:44:19.910Z,9.90
2022-09-12T01:49:58.847Z,9.87
2022-09-12T01:55:16.474Z,10.07
2022-09-12T02:00:18.162Z,10.26
2022-09-12T02:05:31.195Z,10.19
2022-09-12T02:10:41.651Z,9.98
2022-09-12T02:15:52.598Z,9.84
2022-09-12T02:20:56.386Z,9.77
2022-09-12T02:26:04.573Z,9.94
2022-09-12T02:31:14.902Z,10.19
2022-09-12T02:36:30.919Z,10.73
2022-09-12T02:41:32.582Z,10.96
2022-09-12T02:46:42.802Z,10.96
2022-09-12T02:51:46.533Z,11.03
2022-09-12T02:56:48.269Z,10.95
2022-09-12T03:02:04.590Z,10.96
2022-09-12T03:07:12.582Z,11.04
2022-09-12T03:12:36.011Z,11.09
2022-09-12T03:17:43.623Z,11.14
2022-09-12T03:23:00.948Z,11.11
2022-09-12T03:28:09.650Z,11.24
2022-09-12T03:33:15.704Z,11.48
2022-09-12T03:38:17.535Z,11.54
2022-09-12T03:43:19.385Z,11.62
2022-09-12T03:48:21.194Z,11.65
2022-09-12T03:53:22.771Z,11.59
2022-09-12T03:58:25.498Z,11.47
2022-09-12T04:03:27.021Z,11.40
2022-09-12T04:08:28.902Z,11.32
2022-09-12T04:13:30.500Z,11.31
2022-09-12T04:18:33.073Z,11.10
2022-09-12T04:23:35.412Z,10.90
2022-09-12T04:28:38.158Z,10.70
2022-09-12T04:33:40.142Z,10.54
2022-09-12T04:38:42.249Z,10.40
2022-09-12T04:43:46.573Z,10.24
2022-09-12T04:48:51.355Z,10.19
2022-09-12T04:53:59.984Z,10.14
2022-09-12T04:59:01.802Z,10.20
2022-09-12T05:04:03.856Z,10.31
2022-09-12T05:09:07.425Z,10.50
2022-09-12T05:14:10.969Z,10.83
2022-09-12T05:19:12.678Z,10.96
2022-09-12T05:24:14.386Z,10.93
2022-09-12T05:29:16.415Z,10.87
2022-09-12T05:34:18.826Z,10.84
2022-09-12T05:39:20.617Z,11.08
2022-09-12T05:44:22.330Z,11.49
2022-09-12T05:49:24.514Z,11.56
2022-09-12T05:54:31.399Z,11.56
2022-09-12T05:59:33.509Z,11.65
2022-09-12T06:04:35.231Z,11.76
2022-09-12T06:09:36.942Z,11.69
2022-09-12T06:14:38.919Z,11.65
2022-09-12T06:19:40.599Z,11.71
2022-09-12T06:24:42.400Z,11.69
2022-09-12T06:29:44.112Z,11.86
2022-09-12T06:34:48.493Z,12.28
2022-09-12T06:39:50.308Z,12.50
2022-09-12T06:44:52.115Z,12.57
2022-09-12T06:49:53.860Z,12.97
2022-09-12T06:54:55.555Z,13.20
2022-09-12T06:59:57.327Z,13.33
2022-09-12T07:04:59.072Z,13.68
2022-09-12T07:10:00.805Z,13.67
2022-09-12T07:15:02.517Z,13.70
2022-09-12T07:20:04.579Z,13.72
2022-09-12T07:25:06.616Z,13.70
2022-09-12T07:30:08.588Z,13.93
2022-09-12T07:35:10.271Z,14.09
2022-09-12T07:40:12.050Z,14.32
2022-09-12T07:45:13.891Z,14.36
2022-09-12T07:50:15.705Z,14.65
2022-09-12T07:55:17.693Z,14.79
2022-09-12T08:00:19.425Z,15.03
2022-09-12T08:05:21.170Z,15.36
2022-09-12T08:10:22.924Z,15.64
2022-09-12T08:15:25.074Z,16.19
2022-09-12T08:20:28.514Z,16.83
2022-09-12T08:25:31.182Z,16.48
2022-09-12T08:30:32.916Z,16.05
2022-09-12T08:35:34.632Z,15.82
2022-09-12T08:41:03.703Z,16.32
2022-09-12T08:46:18.510Z,17.23
2022-09-12T08:51:20.937Z,18.20
2022-09-12T08:56:23.271Z,19.10
2022-09-12T09:01:38.094Z,19.41
2022-09-12T09:07:15.479Z,18.57
2022-09-12T09:12:53.839Z,17.65
2022-09-12T09:18:11.449Z,17.48
2022-09-12T09:23:20.099Z,17.64
2022-09-12T09:28:38.857Z,17.90
2022-09-12T09:33:40.657Z,18.35
2022-09-12T09:38:54.232Z,18.60
2022-09-12T09:43:57.585Z,19.13
2022-09-12T09:49:03.359Z,19.84
2022-09-12T09:54:25.606Z,20.23
2022-09-12T09:59:33.695Z,21.41
2022-09-12T10:04:41.571Z,21.02
2022-09-12T10:10:14.410Z,21.30
2022-09-12T10:15:29.319Z,19.93
2022-09-12T10:20:40.471Z,19.22
2022-09-12T10:25:47.831Z,18.81
2022-09-12T10:30:56.472Z,18.67
2022-09-12T10:35:58.467Z,18.86
2022-09-12T10:41:06.635Z,20.09
2022-09-12T10:46:17.565Z,21.88
2022-09-12T10:51:25.489Z,22.63
2022-09-12T10:56:47.311Z,23.11
2022-09-12T11:02:10.058Z,23.16
2022-09-12T11:07:18.421Z,24.58
2022-09-12T11:12:49.531Z,27.44
2022-09-12T11:18:18.498Z,27.38
2022-09-12T11:23:23.303Z,29.90
2022-09-12T11:28:53.403Z,31.17
2022-09-12T11:33:57.879Z,30.45
2022-09-12T11:39:45.978Z,27.58
2022-09-12T11:44:59.188Z,26.32
2022-09-12T11:50:05.609Z,23.49
2022-09-12T11:55:17.934Z,22.53
2022-09-12T12:00:22.467Z,23.38
2022-09-12T12:05:58.508Z,27.99
2022-09-12T12:11:02.824Z,28.24
2022-09-12T12:16:12.913Z,26.34
2022-09-12T12:21:36.389Z,27.85
2022-09-12T12:26:41.150Z,28.79
2022-09-12T12:32:04.039Z,26.12
2022-09-12T12:37:25.599Z,28.06
2022-09-12T12:42:32.134Z,30.11
2022-09-12T12:47:43.132Z,31.18
2022-09-12T12:52:59.908Z,29.86
2022-09-12T12:58:04.678Z,29.42
2022-09-12T13:03:06.712Z,26.72
2022-09-12T13:08:10.575Z,23.92
2022-09-12T13:13:25.574Z,24.95
2022-09-12T13:18:43.432Z,28.57
2022-09-12T13:24:00.707Z,30.20
2022-09-12T13:29:10.465Z,30.12
2022-09-12T13:34:22.287Z,31.63
2022-09-12T13:39:52.085Z,32.41
2022-09-12T13:45:13.472Z,34.23
2022-09-12T13:50:20.321Z,34.80
2022-09-12T13:55:38.287Z,31.93
2022-09-12T14:00:40.135Z,30.19
2022-09-12T14:05:45.100Z,28.81
2022-09-12T14:10:50.312Z,26.39
2022-09-12T14:15:54.742Z,24.95
2022-09-12T14:21:02.143Z,24.28
2022-09-12T14:26:06.889Z,23.70
2022-09-12T14:31:15.763Z,23.31
2022-09-12T14:36:22.951Z,22.66
2022-09-12T14:41:29.698Z,22.65
2022-09-12T14:46:37.391Z,22.35
2022-09-12T14:51:51.248Z,21.77
2022-09-12T14:56:59.714Z,21.46
2022-09-12T15:02:13.893Z,21.35
2022-09-12T15:07:26.721Z,21.11
2022-09-12T15:12:28.501Z,20.66
2022-09-12T15:17:30.456Z,20.19
2022-09-12T15:22:33.160Z,20.12
2022-09-12T15:27:41.012Z,20.09
2022-09-12T15:32:44.164Z,19.96
2022-09-12T15:37:45.893Z,19.75
2022-09-12T15:42:47.605Z,19.43
2022-09-12T15:47:49.541Z,19.06
2022-09-12T15:52:51.323Z,18.72
2022-09-12T15:57:53.097Z,18.41
2022-09-12T16:02:54.882Z,18.21
2022-09-12T16:07:56.703Z,18.02
2022-09-12T16:12:58.613Z,17.87
2022-09-12T16:18:00.393Z,17.71
2022-09-12T16:23:02.224Z,17.62
2022-09-12T16:28:05.989Z,17.58
2022-09-12T16:33:08.940Z,17.38
2022-09-12T16:38:10.664Z,17.26
2022-09-12T16:43:12.435Z,17.04
2022-09-12T16:48:14.198Z,16.84
2022-09-12T16:53:16.288Z,16.77
2022-09-12T16:58:18.031Z,16.70
2022-09-12T17:03:19.755Z,16.63
2022-09-12T17:08:22.940Z,16.54
2022-09-12T17:13:29.770Z,16.47
2022-09-12T17:18:43.340Z,16.27
2022-09-12T17:23:45.278Z,16.08
2022-09-12T17:28:47.257Z,15.90
2022-09-12T17:33:49.132Z,15.55
2022-09-12T17:38:51.861Z,15.37
2022-09-12T17:43:57.397Z,15.17
2022-09-12T17:49:01.020Z,14.91
2022-09-12T17:54:05.565Z,14.63
2022-09-12T17:59:09.001Z,14.30
2022-09-12T18:04:10.961Z,14.13
2022-09-12T18:09:12.753Z,13.89
2022-09-12T18:14:14.831Z,13.71
2022-09-12T18:19:18.758Z,13.45
2022-09-12T18:24:21.063Z,13.16
2022-09-12T18:29:23.523Z,12.92
2022-09-12T18:34:25.304Z,12.75
2022-09-12T18:39:28.017Z,12.55
2022-09-12T18:44:29.917Z,12.44
2022-09-12T18:49:31.798Z,12.28
2022-09-12T18:54:34.003Z,12.15
2022-09-12T18:59:35.824Z,12.00
2022-09-12T19:04:37.610Z,11.85
2022-09-12T19:09:39.534Z,11.69
2022-09-12T19:14:41.310Z,11.55
2022-09-12T19:19:43.039Z,11.48
2022-09-12T19:24:44.795Z,11.53
2022-09-12T19:29:46.683Z,11.46
2022-09-12T19:34:48.525Z,11.37
2022-09-12T19:39:50.311Z,11.23
2022-09-12T19:44:55.776Z,11.22
2022-09-12T19:49:57.490Z,11.20
2022-09-12T19:54:59.205Z,11.16
2022-09-12T20:00:01.061Z,11.03
2022-09-12T20:05:02.780Z,10.93
2022-09-12T20:10:04.971Z,10.84
2022-09-12T20:15:08.092Z,10.73
2022-09-12T20:20:10.648Z,10.60
2022-09-12T20:25:12.431Z,10.48
2022-09-12T20:30:15.107Z,10.43
2022-09-12T20:35:17.363Z,10.39
2022-09-12T20:40:19.143Z,10.37
2022-09-12T20:45:20.913Z,10.28
2022-09-12T20:50:22.627Z,10.21
2022-09-12T20:55:24.565Z,10.19
2022-09-12T21:00:26.273Z,10.13
2022-09-12T21:05:27.974Z,10.10
2022-09-12T21:10:31.060Z,10.03
2022-09-12T21:15:32.785Z,9.98
2022-09-12T21:20:34.925Z,9.94
2022-09-12T21:25:36.638Z,9.89
2022-09-12T21:30:39.005Z,9.88
2022-09-12T21:35:40.768Z,9.83
2022-09-12T21:40:42.730Z,9.75
2022-09-12T21:45:44.571Z,9.75
2022-09-12T21:50:50.668Z,9.74
2022-09-12T21:55:52.430Z,9.75
2022-09-12T22:00:54.203Z,9.75
2022-09-12T22:06:01.566Z,9.70
2022-09-12T22:11:09.340Z,9.64
2022-09-12T22:16:12.190Z,9.58
2022-09-12T22:21:17.672Z,9.48
2022-09-12T22:26:19.487Z,9.44
2022-09-12T22:31:21.659Z,9.39
2022-09-12T22:36:24.915Z,9.34
2022-09-12T22:41:29.050Z,9.31
2022-09-12T22:46:30.873Z,9.25
2022-09-12T22:51:33.293Z,9.20
2022-09-12T22:56:35.447Z,9.18
2022-09-12T23:01:37.228Z,9.08
2022-09-12T23:06:38.985Z,9.10
2022-09-12T23:11:40.675Z,9.05
2022-09-12T23:16:42.369Z,9.04
2022-09-12T23:21:44.556Z,8.98
2022-09-12T23:26:46.339Z,8.96
2022-09-12T23:31:48.731Z,8.92
2022-09-12T23:36:50.512Z,8.89
2022-09-12T23:41:52.326Z,8.86
2022-09-12T23:46:54.025Z,8.80
2022-09-12T23:51:55.775Z,8.76
2022-09-12T23:56:57.557Z,8.77
